sensor_id;sensor_type;location;lat;lon;timestamp;P1;durP1;ratioP1;P2;durP2;ratioP2
30934;SDS011;51033;42.648;23.292;2023-04-25T00:01:17;2.58;;;2.38;;
30934;SDS011;51033;42.648;23.292;2023-04-25T00:03:42;2.53;;;2.33;;
30934;SDS011;51033;42.648;23.292;2023-04-25T00:06:08;2.47;;;1.90;;
30934;SDS011;51033;42.648;23.292;2023-04-25T00:08:33;1.58;;;1.48;;
30934;SDS011;51033;42.648;23.292;2023-04-25T00:11:00;1.48;;;1.38;;
30934;SDS011;51033;42.648;23.292;2023-04-25T00:13:25;1.15;;;1.00;;
30934;SDS011;51033;42.648;23.292;2023-04-25T00:15:51;0.98;;;0.80;;
30934;SDS011;51033;42.648;23.292;2023-04-25T00:18:18;0.93;;;0.93;;
30934;SDS011;51033;42.648;23.292;2023-04-25T00:20:46;0.93;;;0.80;;
30934;SDS011;51033;42.648;23.292;2023-04-25T00:23:13;0.70;;;0.70;;
30934;SDS011;51033;42.648;23.292;2023-04-25T00:25:43;0.70;;;0.70;;
30934;SDS011;51033;42.648;23.292;2023-04-25T00:28:10;0.98;;;0.52;;
30934;SDS011;51033;42.648;23.292;2023-04-25T00:30:35;0.60;;;0.60;;
30934;SDS011;51033;42.648;23.292;2023-04-25T00:33:01;1.08;;;0.70;;
30934;SDS011;51033;42.648;23.292;2023-04-25T00:35:26;0.60;;;0.60;;
30934;SDS011;51033;42.648;23.292;2023-04-25T00:37:52;0.80;;;0.80;;
30934;SDS011;51033;42.648;23.292;2023-04-25T00:40:17;1.17;;;1.05;;
30934;SDS011;51033;42.648;23.292;2023-04-25T00:42:43;3.70;;;1.58;;
30934;SDS011;51033;42.648;23.292;2023-04-25T00:45:10;2.13;;;1.90;;
30934;SDS011;51033;42.648;23.292;2023-04-25T00:47:39;2.92;;;2.60;;
30934;SDS011;51033;42.648;23.292;2023-04-25T00:50:05;4.20;;;2.60;;
30934;SDS011;51033;42.648;23.292;2023-04-25T00:52:31;3.35;;;2.70;;
30934;SDS011;51033;42.648;23.292;2023-04-25T00:54:57;3.53;;;3.22;;
30934;SDS011;51033;42.648;23.292;2023-04-25T00:57:22;3.30;;;3.00;;
30934;SDS011;51033;42.648;23.292;2023-04-25T00:59:48;3.85;;;2.55;;
30934;SDS011;51033;42.648;23.292;2023-04-25T01:02:16;4.47;;;2.50;;
30934;SDS011;51033;42.648;23.292;2023-04-25T01:04:42;3.55;;;2.67;;
30934;SDS011;51033;42.648;23.292;2023-04-25T01:07:08;3.40;;;3.10;;
30934;SDS011;51033;42.648;23.292;2023-04-25T01:09:34;3.47;;;3.15;;
30934;SDS011;51033;42.648;23.292;2023-04-25T01:12:00;4.70;;;4.25;;
30934;SDS011;51033;42.648;23.292;2023-04-25T01:14:27;6.38;;;5.05;;
30934;SDS011;51033;42.648;23.292;2023-04-25T01:16:54;13.43;;;7.18;;
30934;SDS011;51033;42.648;23.292;2023-04-25T01:19:20;8.93;;;6.80;;
30934;SDS011;51033;42.648;23.292;2023-04-25T01:21:45;9.07;;;8.10;;
30934;SDS011;51033;42.648;23.292;2023-04-25T01:24:11;8.13;;;7.32;;
30934;SDS011;51033;42.648;23.292;2023-04-25T01:26:37;12.20;;;7.88;;
30934;SDS011;51033;42.648;23.292;2023-04-25T01:29:04;7.95;;;6.95;;
30934;SDS011;51033;42.648;23.292;2023-04-25T01:31:30;7.85;;;6.80;;
30934;SDS011;51033;42.648;23.292;2023-04-25T01:33:57;7.28;;;6.60;;
30934;SDS011;51033;42.648;23.292;2023-04-25T01:36:22;7.90;;;7.07;;
30934;SDS011;51033;42.648;23.292;2023-04-25T01:38:48;8.63;;;7.13;;
30934;SDS011;51033;42.648;23.292;2023-04-25T01:41:14;7.78;;;6.97;;
30934;SDS011;51033;42.648;23.292;2023-04-25T01:43:40;8.32;;;6.78;;
30934;SDS011;51033;42.648;23.292;2023-04-25T01:46:05;7.70;;;6.97;;
30934;SDS011;51033;42.648;23.292;2023-04-25T01:48:31;8.02;;;7.22;;
30934;SDS011;51033;42.648;23.292;2023-04-25T01:50:57;7.10;;;6.40;;
30934;SDS011;51033;42.648;23.292;2023-04-25T01:53:22;8.82;;;7.82;;
30934;SDS011;51033;42.648;23.292;2023-04-25T01:55:48;7.53;;;6.78;;
30934;SDS011;51033;42.648;23.292;2023-04-25T01:58:14;7.93;;;6.38;;
30934;SDS011;51033;42.648;23.292;2023-04-25T02:00:39;9.27;;;6.82;;
30934;SDS011;51033;42.648;23.292;2023-04-25T02:03:06;6.93;;;6.18;;
30934;SDS011;51033;42.648;23.292;2023-04-25T02:05:35;6.80;;;6.05;;
30934;SDS011;51033;42.648;23.292;2023-04-25T02:08:01;7.15;;;5.55;;
30934;SDS011;51033;42.648;23.292;2023-04-25T02:10:28;5.97;;;4.47;;
30934;SDS011;51033;42.648;23.292;2023-04-25T02:12:53;5.78;;;5.05;;
30934;SDS011;51033;42.648;23.292;2023-04-25T02:15:19;5.30;;;4.28;;
30934;SDS011;51033;42.648;23.292;2023-04-25T02:17:44;5.93;;;5.07;;
30934;SDS011;51033;42.648;23.292;2023-04-25T02:20:10;7.03;;;5.50;;
30934;SDS011;51033;42.648;23.292;2023-04-25T02:22:36;6.45;;;5.03;;
30934;SDS011;51033;42.648;23.292;2023-04-25T02:25:02;4.95;;;4.47;;
30934;SDS011;51033;42.648;23.292;2023-04-25T02:27:30;6.05;;;5.15;;
30934;SDS011;51033;42.648;23.292;2023-04-25T02:29:56;5.13;;;4.63;;
30934;SDS011;51033;42.648;23.292;2023-04-25T02:32:21;11.43;;;5.35;;
30934;SDS011;51033;42.648;23.292;2023-04-25T02:34:46;6.30;;;4.50;;
30934;SDS011;51033;42.648;23.292;2023-04-25T02:37:13;8.50;;;5.60;;
30934;SDS011;51033;42.648;23.292;2023-04-25T02:39:38;6.57;;;5.68;;
30934;SDS011;51033;42.648;23.292;2023-04-25T02:42:04;5.57;;;4.97;;
30934;SDS011;51033;42.648;23.292;2023-04-25T02:44:29;6.63;;;4.95;;
30934;SDS011;51033;42.648;23.292;2023-04-25T02:46:57;8.60;;;6.10;;
30934;SDS011;51033;42.648;23.292;2023-04-25T02:49:22;5.68;;;5.07;;
30934;SDS011;51033;42.648;23.292;2023-04-25T02:51:48;6.47;;;5.40;;
30934;SDS011;51033;42.648;23.292;2023-04-25T02:54:13;7.93;;;5.63;;
30934;SDS011;51033;42.648;23.292;2023-04-25T02:56:38;6.47;;;5.75;;
30934;SDS011;51033;42.648;23.292;2023-04-25T02:59:05;5.72;;;5.13;;
30934;SDS011;51033;42.648;23.292;2023-04-25T03:01:30;6.63;;;5.40;;
30934;SDS011;51033;42.648;23.292;2023-04-25T03:03:55;7.72;;;6.20;;
30934;SDS011;51033;42.648;23.292;2023-04-25T03:06:21;5.90;;;5.40;;
30934;SDS011;51033;42.648;23.292;2023-04-25T03:08:46;7.00;;;6.30;;
30934;SDS011;51033;42.648;23.292;2023-04-25T03:11:12;7.15;;;6.45;;
30934;SDS011;51033;42.648;23.292;2023-04-25T03:13:37;7.78;;;6.30;;
30934;SDS011;51033;42.648;23.292;2023-04-25T03:16:03;6.05;;;5.50;;
30934;SDS011;51033;42.648;23.292;2023-04-25T03:18:28;6.90;;;6.13;;
30934;SDS011;51033;42.648;23.292;2023-04-25T03:20:53;7.25;;;5.63;;
30934;SDS011;51033;42.648;23.292;2023-04-25T03:23:19;10.20;;;6.63;;
30934;SDS011;51033;42.648;23.292;2023-04-25T03:25:44;6.57;;;5.25;;
30934;SDS011;51033;42.648;23.292;2023-04-25T03:28:10;8.57;;;6.22;;
30934;SDS011;51033;42.648;23.292;2023-04-25T03:30:35;8.93;;;7.30;;
30934;SDS011;51033;42.648;23.292;2023-04-25T03:33:01;9.77;;;7.43;;
30934;SDS011;51033;42.648;23.292;2023-04-25T03:35:26;9.65;;;8.25;;
30934;SDS011;51033;42.648;23.292;2023-04-25T03:37:52;12.13;;;9.70;;
30934;SDS011;51033;42.648;23.292;2023-04-25T03:40:17;13.18;;;10.57;;
30934;SDS011;51033;42.648;23.292;2023-04-25T03:42:42;12.32;;;10.15;;
30934;SDS011;51033;42.648;23.292;2023-04-25T03:45:08;13.48;;;10.15;;
30934;SDS011;51033;42.648;23.292;2023-04-25T03:47:33;15.20;;;11.85;;
30934;SDS011;51033;42.648;23.292;2023-04-25T03:50:00;14.18;;;11.23;;
30934;SDS011;51033;42.648;23.292;2023-04-25T03:52:26;16.20;;;11.23;;
30934;SDS011;51033;42.648;23.292;2023-04-25T03:54:52;12.27;;;10.38;;
30934;SDS011;51033;42.648;23.292;2023-04-25T03:57:17;11.30;;;8.80;;
30934;SDS011;51033;42.648;23.292;2023-04-25T03:59:43;17.45;;;11.88;;
30934;SDS011;51033;42.648;23.292;2023-04-25T04:02:09;15.38;;;12.25;;
30934;SDS011;51033;42.648;23.292;2023-04-25T04:04:34;15.77;;;12.00;;
30934;SDS011;51033;42.648;23.292;2023-04-25T04:07:00;15.55;;;11.45;;
30934;SDS011;51033;42.648;23.292;2023-04-25T04:09:26;13.30;;;11.35;;
30934;SDS011;51033;42.648;23.292;2023-04-25T04:11:52;12.95;;;10.73;;
30934;SDS011;51033;42.648;23.292;2023-04-25T04:14:18;14.23;;;11.35;;
30934;SDS011;51033;42.648;23.292;2023-04-25T04:16:43;14.40;;;10.02;;
30934;SDS011;51033;42.648;23.292;2023-04-25T04:19:09;10.43;;;8.95;;
30934;SDS011;51033;42.648;23.292;2023-04-25T04:21:34;13.80;;;9.90;;
30934;SDS011;51033;42.648;23.292;2023-04-25T04:24:00;12.93;;;9.65;;
30934;SDS011;51033;42.648;23.292;2023-04-25T04:26:25;13.70;;;10.35;;
30934;SDS011;51033;42.648;23.292;2023-04-25T04:28:51;9.70;;;7.63;;
30934;SDS011;51033;42.648;23.292;2023-04-25T04:31:19;10.75;;;8.73;;
30934;SDS011;51033;42.648;23.292;2023-04-25T04:33:45;11.00;;;9.07;;
30934;SDS011;51033;42.648;23.292;2023-04-25T04:36:10;12.80;;;10.57;;
30934;SDS011;51033;42.648;23.292;2023-04-25T04:38:36;13.35;;;9.35;;
30934;SDS011;51033;42.648;23.292;2023-04-25T04:41:02;10.38;;;9.10;;
30934;SDS011;51033;42.648;23.292;2023-04-25T04:43:28;9.00;;;8.10;;
30934;SDS011;51033;42.648;23.292;2023-04-25T04:45:54;10.05;;;7.68;;
30934;SDS011;51033;42.648;23.292;2023-04-25T04:48:21;9.57;;;7.97;;
30934;SDS011;51033;42.648;23.292;2023-04-25T04:50:47;9.45;;;7.80;;
30934;SDS011;51033;42.648;23.292;2023-04-25T04:53:12;11.18;;;9.32;;
30934;SDS011;51033;42.648;23.292;2023-04-25T04:55:38;11.40;;;10.13;;
30934;SDS011;51033;42.648;23.292;2023-04-25T04:58:06;13.50;;;10.00;;
30934;SDS011;51033;42.648;23.292;2023-04-25T05:00:31;14.40;;;9.52;;
30934;SDS011;51033;42.648;23.292;2023-04-25T05:02:56;14.07;;;10.55;;
30934;SDS011;51033;42.648;23.292;2023-04-25T05:05:22;11.85;;;9.35;;
30934;SDS011;51033;42.648;23.292;2023-04-25T05:07:47;11.95;;;9.55;;
30934;SDS011;51033;42.648;23.292;2023-04-25T05:10:13;10.38;;;8.25;;
30934;SDS011;51033;42.648;23.292;2023-04-25T05:12:38;11.20;;;8.45;;
30934;SDS011;51033;42.648;23.292;2023-04-25T05:15:04;9.32;;;7.65;;
30934;SDS011;51033;42.648;23.292;2023-04-25T05:17:30;9.32;;;6.80;;
30934;SDS011;51033;42.648;23.292;2023-04-25T05:19:55;9.77;;;8.00;;
30934;SDS011;51033;42.648;23.292;2023-04-25T05:22:22;10.70;;;9.38;;
30934;SDS011;51033;42.648;23.292;2023-04-25T05:24:47;9.60;;;8.60;;
30934;SDS011;51033;42.648;23.292;2023-04-25T05:27:13;11.88;;;9.73;;
30934;SDS011;51033;42.648;23.292;2023-04-25T05:29:41;11.98;;;10.60;;
30934;SDS011;51033;42.648;23.292;2023-04-25T05:32:06;12.70;;;10.25;;
30934;SDS011;51033;42.648;23.292;2023-04-25T05:34:32;15.52;;;10.95;;
30934;SDS011;51033;42.648;23.292;2023-04-25T05:36:58;12.27;;;10.20;;
30934;SDS011;51033;42.648;23.292;2023-04-25T05:39:23;15.40;;;13.55;;
30934;SDS011;51033;42.648;23.292;2023-04-25T05:41:48;14.25;;;10.80;;
30934;SDS011;51033;42.648;23.292;2023-04-25T05:44:14;18.92;;;13.90;;
30934;SDS011;51033;42.648;23.292;2023-04-25T05:46:40;13.32;;;11.88;;
30934;SDS011;51033;42.648;23.292;2023-04-25T05:49:06;14.30;;;12.20;;
30934;SDS011;51033;42.648;23.292;2023-04-25T05:51:32;15.70;;;11.15;;
30934;SDS011;51033;42.648;23.292;2023-04-25T05:53:57;12.18;;;9.68;;
30934;SDS011;51033;42.648;23.292;2023-04-25T05:56:23;13.85;;;11.10;;
30934;SDS011;51033;42.648;23.292;2023-04-25T05:58:48;13.30;;;11.45;;
30934;SDS011;51033;42.648;23.292;2023-04-25T06:01:13;11.98;;;10.55;;
30934;SDS011;51033;42.648;23.292;2023-04-25T06:03:39;13.43;;;11.13;;
30934;SDS011;51033;42.648;23.292;2023-04-25T06:06:08;13.80;;;12.23;;
30934;SDS011;51033;42.648;23.292;2023-04-25T06:08:34;15.70;;;12.00;;
30934;SDS011;51033;42.648;23.292;2023-04-25T06:11:00;16.27;;;13.43;;
30934;SDS011;51033;42.648;23.292;2023-04-25T06:13:25;16.85;;;13.85;;
30934;SDS011;51033;42.648;23.292;2023-04-25T06:15:51;16.83;;;14.13;;
30934;SDS011;51033;42.648;23.292;2023-04-25T06:18:16;18.85;;;14.15;;
30934;SDS011;51033;42.648;23.292;2023-04-25T06:20:42;19.23;;;15.35;;
30934;SDS011;51033;42.648;23.292;2023-04-25T06:23:07;18.17;;;14.57;;
30934;SDS011;51033;42.648;23.292;2023-04-25T06:25:33;17.95;;;13.50;;
30934;SDS011;51033;42.648;23.292;2023-04-25T06:27:58;16.67;;;12.27;;
30934;SDS011;51033;42.648;23.292;2023-04-25T06:30:24;14.45;;;10.13;;
30934;SDS011;51033;42.648;23.292;2023-04-25T06:32:51;15.82;;;10.18;;
30934;SDS011;51033;42.648;23.292;2023-04-25T06:35:18;12.43;;;9.52;;
30934;SDS011;51033;42.648;23.292;2023-04-25T06:37:43;13.32;;;9.18;;
30934;SDS011;51033;42.648;23.292;2023-04-25T06:40:09;17.55;;;11.35;;
30934;SDS011;51033;42.648;23.292;2023-04-25T06:42:35;15.48;;;12.52;;
30934;SDS011;51033;42.648;23.292;2023-04-25T06:45:01;15.57;;;12.18;;
30934;SDS011;51033;42.648;23.292;2023-04-25T06:47:26;15.32;;;12.65;;
30934;SDS011;51033;42.648;23.292;2023-04-25T06:49:52;15.50;;;11.98;;
30934;SDS011;51033;42.648;23.292;2023-04-25T06:52:17;14.68;;;12.43;;
30934;SDS011;51033;42.648;23.292;2023-04-25T06:54:43;14.90;;;12.70;;
30934;SDS011;51033;42.648;23.292;2023-04-25T06:57:09;13.98;;;11.95;;
30934;SDS011;51033;42.648;23.292;2023-04-25T06:59:37;15.20;;;12.07;;
30934;SDS011;51033;42.648;23.292;2023-04-25T07:02:02;17.48;;;13.05;;
30934;SDS011;51033;42.648;23.292;2023-04-25T07:04:28;15.80;;;13.23;;
30934;SDS011;51033;42.648;23.292;2023-04-25T07:06:54;16.63;;;13.13;;
30934;SDS011;51033;42.648;23.292;2023-04-25T07:09:20;16.83;;;13.77;;
30934;SDS011;51033;42.648;23.292;2023-04-25T07:11:45;14.43;;;11.63;;
30934;SDS011;51033;42.648;23.292;2023-04-25T07:14:11;13.93;;;11.73;;
30934;SDS011;51033;42.648;23.292;2023-04-25T07:16:36;15.32;;;12.13;;
30934;SDS011;51033;42.648;23.292;2023-04-25T07:19:01;13.38;;;11.70;;
30934;SDS011;51033;42.648;23.292;2023-04-25T07:21:30;17.30;;;12.35;;
30934;SDS011;51033;42.648;23.292;2023-04-25T07:23:56;14.25;;;11.73;;
30934;SDS011;51033;42.648;23.292;2023-04-25T07:26:22;19.38;;;12.65;;
30934;SDS011;51033;42.648;23.292;2023-04-25T07:28:47;16.13;;;12.27;;
30934;SDS011;51033;42.648;23.292;2023-04-25T07:31:15;16.60;;;11.93;;
30934;SDS011;51033;42.648;23.292;2023-04-25T07:33:43;14.57;;;11.00;;
30934;SDS011;51033;42.648;23.292;2023-04-25T07:36:10;11.73;;;10.52;;
30934;SDS011;51033;42.648;23.292;2023-04-25T07:38:35;20.42;;;10.85;;
30934;SDS011;51033;42.648;23.292;2023-04-25T07:41:01;15.05;;;9.73;;
30934;SDS011;51033;42.648;23.292;2023-04-25T07:43:26;11.82;;;9.32;;
30934;SDS011;51033;42.648;23.292;2023-04-25T07:45:52;16.05;;;9.90;;
30934;SDS011;51033;42.648;23.292;2023-04-25T07:48:17;13.50;;;10.18;;
30934;SDS011;51033;42.648;23.292;2023-04-25T07:50:43;13.18;;;8.98;;
30934;SDS011;51033;42.648;23.292;2023-04-25T07:53:09;13.52;;;8.85;;
30934;SDS011;51033;42.648;23.292;2023-04-25T07:55:35;11.77;;;8.68;;
30934;SDS011;51033;42.648;23.292;2023-04-25T07:58:01;11.27;;;8.30;;
30934;SDS011;51033;42.648;23.292;2023-04-25T08:00:28;12.65;;;7.97;;
30934;SDS011;51033;42.648;23.292;2023-04-25T08:02:54;12.85;;;8.02;;
30934;SDS011;51033;42.648;23.292;2023-04-25T08:05:19;14.07;;;8.30;;
30934;SDS011;51033;42.648;23.292;2023-04-25T08:07:44;11.70;;;8.02;;
30934;SDS011;51033;42.648;23.292;2023-04-25T08:10:13;10.63;;;8.05;;
30934;SDS011;51033;42.648;23.292;2023-04-25T08:12:39;8.52;;;6.75;;
30934;SDS011;51033;42.648;23.292;2023-04-25T08:15:05;9.82;;;7.15;;
30934;SDS011;51033;42.648;23.292;2023-04-25T08:17:31;8.23;;;7.40;;
30934;SDS011;51033;42.648;23.292;2023-04-25T08:19:56;9.55;;;7.43;;
30934;SDS011;51033;42.648;23.292;2023-04-25T08:22:23;10.68;;;6.50;;
30934;SDS011;51033;42.648;23.292;2023-04-25T08:24:49;7.10;;;5.80;;
30934;SDS011;51033;42.648;23.292;2023-04-25T08:27:14;8.38;;;5.88;;
30934;SDS011;51033;42.648;23.292;2023-04-25T08:29:40;15.98;;;7.00;;
30934;SDS011;51033;42.648;23.292;2023-04-25T08:32:06;5.38;;;3.97;;
30934;SDS011;51033;42.648;23.292;2023-04-25T08:34:31;3.28;;;2.65;;
30934;SDS011;51033;42.648;23.292;2023-04-25T08:36:57;8.25;;;4.60;;
30934;SDS011;51033;42.648;23.292;2023-04-25T08:39:22;5.00;;;3.83;;
30934;SDS011;51033;42.648;23.292;2023-04-25T08:41:48;3.20;;;2.20;;
30934;SDS011;51033;42.648;23.292;2023-04-25T08:44:13;4.95;;;4.55;;
30934;SDS011;51033;42.648;23.292;2023-04-25T08:46:40;5.07;;;3.83;;
30934;SDS011;51033;42.648;23.292;2023-04-25T08:49:06;3.03;;;2.72;;
30934;SDS011;51033;42.648;23.292;2023-04-25T08:51:34;3.22;;;2.13;;
30934;SDS011;51033;42.648;23.292;2023-04-25T08:54:08;2.53;;;2.00;;
30934;SDS011;51033;42.648;23.292;2023-04-25T08:56:37;4.22;;;2.17;;
30934;SDS011;51033;42.648;23.292;2023-04-25T08:59:05;2.15;;;1.73;;
30934;SDS011;51033;42.648;23.292;2023-04-25T09:01:33;2.55;;;1.98;;
30934;SDS011;51033;42.648;23.292;2023-04-25T09:04:00;7.80;;;4.05;;
30934;SDS011;51033;42.648;23.292;2023-04-25T09:06:27;6.63;;;5.55;;
30934;SDS011;51033;42.648;23.292;2023-04-25T09:09:06;7.90;;;5.00;;
30934;SDS011;51033;42.648;23.292;2023-04-25T09:11:33;4.97;;;4.28;;
30934;SDS011;51033;42.648;23.292;2023-04-25T09:14:10;9.63;;;4.85;;
30934;SDS011;51033;42.648;23.292;2023-04-25T09:19:21;3.42;;;1.80;;
30934;SDS011;51033;42.648;23.292;2023-04-25T09:22:05;6.23;;;4.10;;
30934;SDS011;51033;42.648;23.292;2023-04-25T09:24:40;9.90;;;5.18;;
30934;SDS011;51033;42.648;23.292;2023-04-25T09:27:11;4.85;;;4.15;;
30934;SDS011;51033;42.648;23.292;2023-04-25T09:29:41;5.65;;;3.22;;
30934;SDS011;51033;42.648;23.292;2023-04-25T09:34:47;10.02;;;6.20;;
30934;SDS011;51033;42.648;23.292;2023-04-25T09:37:17;10.07;;;5.75;;
30934;SDS011;51033;42.648;23.292;2023-04-25T09:39:49;8.90;;;6.50;;
30934;SDS011;51033;42.648;23.292;2023-04-25T09:42:16;8.60;;;6.30;;
30934;SDS011;51033;42.648;23.292;2023-04-25T09:44:42;4.82;;;3.30;;
30934;SDS011;51033;42.648;23.292;2023-04-25T09:47:10;2.80;;;2.03;;
30934;SDS011;51033;42.648;23.292;2023-04-25T09:49:39;3.25;;;1.50;;
30934;SDS011;51033;42.648;23.292;2023-04-25T09:52:07;1.30;;;1.17;;
30934;SDS011;51033;42.648;23.292;2023-04-25T09:54:33;3.33;;;1.80;;
30934;SDS011;51033;42.648;23.292;2023-04-25T09:56:58;2.83;;;1.70;;
30934;SDS011;51033;42.648;23.292;2023-04-25T09:59:35;1.10;;;1.00;;
30934;SDS011;51033;42.648;23.292;2023-04-25T10:02:04;1.45;;;1.00;;
30934;SDS011;51033;42.648;23.292;2023-04-25T10:04:31;1.88;;;0.90;;
30934;SDS011;51033;42.648;23.292;2023-04-25T10:07:01;3.80;;;1.00;;
30934;SDS011;51033;42.648;23.292;2023-04-25T10:09:31;2.92;;;1.13;;
30934;SDS011;51033;42.648;23.292;2023-04-25T10:12:00;2.10;;;1.45;;
30934;SDS011;51033;42.648;23.292;2023-04-25T10:14:28;1.48;;;0.82;;
30934;SDS011;51033;42.648;23.292;2023-04-25T10:16:55;1.50;;;1.02;;
30934;SDS011;51033;42.648;23.292;2023-04-25T10:19:23;2.15;;;0.80;;
30934;SDS011;51033;42.648;23.292;2023-04-25T10:21:54;3.00;;;1.05;;
30934;SDS011;51033;42.648;23.292;2023-04-25T10:24:21;2.63;;;1.10;;
30934;SDS011;51033;42.648;23.292;2023-04-25T10:26:47;0.95;;;0.80;;
30934;SDS011;51033;42.648;23.292;2023-04-25T10:29:15;5.43;;;1.42;;
30934;SDS011;51033;42.648;23.292;2023-04-25T10:31:50;2.90;;;1.95;;
30934;SDS011;51033;42.648;23.292;2023-04-25T10:34:18;4.68;;;1.00;;
30934;SDS011;51033;42.648;23.292;2023-04-25T10:36:49;2.28;;;0.88;;
30934;SDS011;51033;42.648;23.292;2023-04-25T10:39:23;2.35;;;0.70;;
30934;SDS011;51033;42.648;23.292;2023-04-25T10:41:53;1.92;;;0.80;;
30934;SDS011;51033;42.648;23.292;2023-04-25T10:44:28;1.13;;;0.90;;
30934;SDS011;51033;42.648;23.292;2023-04-25T10:46:57;3.78;;;0.82;;
30934;SDS011;51033;42.648;23.292;2023-04-25T10:49:31;1.00;;;0.90;;
30934;SDS011;51033;42.648;23.292;2023-04-25T10:52:14;2.47;;;0.80;;
30934;SDS011;51033;42.648;23.292;2023-04-25T10:54:53;0.80;;;0.68;;
30934;SDS011;51033;42.648;23.292;2023-04-25T11:00:12;1.02;;;0.93;;
30934;SDS011;51033;42.648;23.292;2023-04-25T11:02:40;2.90;;;0.80;;
30934;SDS011;51033;42.648;23.292;2023-04-25T11:07:57;1.50;;;0.75;;
30934;SDS011;51033;42.648;23.292;2023-04-25T11:10:27;0.82;;;0.82;;
30934;SDS011;51033;42.648;23.292;2023-04-25T11:12:53;1.92;;;0.90;;
30934;SDS011;51033;42.648;23.292;2023-04-25T11:15:19;2.22;;;1.30;;
30934;SDS011;51033;42.648;23.292;2023-04-25T11:17:44;2.30;;;0.90;;
30934;SDS011;51033;42.648;23.292;2023-04-25T11:20:11;1.48;;;0.75;;
30934;SDS011;51033;42.648;23.292;2023-04-25T11:22:38;2.53;;;0.80;;
30934;SDS011;51033;42.648;23.292;2023-04-25T11:25:06;1.48;;;0.82;;
30934;SDS011;51033;42.648;23.292;2023-04-25T11:27:32;2.03;;;0.88;;
30934;SDS011;51033;42.648;23.292;2023-04-25T11:29:58;2.95;;;0.63;;
30934;SDS011;51033;42.648;23.292;2023-04-25T11:32:23;1.38;;;0.82;;
30934;SDS011;51033;42.648;23.292;2023-04-25T11:34:49;2.70;;;1.25;;
30934;SDS011;51033;42.648;23.292;2023-04-25T11:37:14;4.35;;;1.27;;
30934;SDS011;51033;42.648;23.292;2023-04-25T11:39:43;1.83;;;0.80;;
30934;SDS011;51033;42.648;23.292;2023-04-25T11:42:11;1.70;;;1.33;;
30934;SDS011;51033;42.648;23.292;2023-04-25T11:44:37;1.33;;;0.80;;
30934;SDS011;51033;42.648;23.292;2023-04-25T11:47:04;2.38;;;1.23;;
30934;SDS011;51033;42.648;23.292;2023-04-25T11:49:31;3.20;;;0.90;;
30934;SDS011;51033;42.648;23.292;2023-04-25T11:51:59;5.90;;;1.27;;
30934;SDS011;51033;42.648;23.292;2023-04-25T11:54:25;5.30;;;1.35;;
30934;SDS011;51033;42.648;23.292;2023-04-25T11:56:51;4.80;;;1.00;;
30934;SDS011;51033;42.648;23.292;2023-04-25T11:59:22;3.58;;;1.33;;
30934;SDS011;51033;42.648;23.292;2023-04-25T12:01:49;2.45;;;0.88;;
30934;SDS011;51033;42.648;23.292;2023-04-25T12:04:19;7.07;;;2.45;;
30934;SDS011;51033;42.648;23.292;2023-04-25T12:06:47;2.35;;;1.10;;
30934;SDS011;51033;42.648;23.292;2023-04-25T12:09:15;2.78;;;1.10;;
30934;SDS011;51033;42.648;23.292;2023-04-25T12:11:55;4.13;;;1.15;;
30934;SDS011;51033;42.648;23.292;2023-04-25T12:14:28;1.00;;;0.88;;
30934;SDS011;51033;42.648;23.292;2023-04-25T12:16:57;2.95;;;0.70;;
30934;SDS011;51033;42.648;23.292;2023-04-25T12:19:24;0.63;;;0.63;;
30934;SDS011;51033;42.648;23.292;2023-04-25T12:21:51;1.38;;;0.95;;
30934;SDS011;51033;42.648;23.292;2023-04-25T12:24:17;1.73;;;1.10;;
30934;SDS011;51033;42.648;23.292;2023-04-25T12:26:52;6.17;;;1.70;;
30934;SDS011;51033;42.648;23.292;2023-04-25T12:29:28;4.35;;;1.20;;
30934;SDS011;51033;42.648;23.292;2023-04-25T12:31:55;2.85;;;1.20;;
30934;SDS011;51033;42.648;23.292;2023-04-25T12:34:21;2.10;;;0.80;;
30934;SDS011;51033;42.648;23.292;2023-04-25T12:36:48;2.55;;;0.80;;
30934;SDS011;51033;42.648;23.292;2023-04-25T12:39:24;1.58;;;0.73;;
30934;SDS011;51033;42.648;23.292;2023-04-25T12:41:53;1.27;;;0.70;;
30934;SDS011;51033;42.648;23.292;2023-04-25T12:44:21;1.77;;;0.82;;
30934;SDS011;51033;42.648;23.292;2023-04-25T12:46:47;3.33;;;1.00;;
30934;SDS011;51033;42.648;23.292;2023-04-25T12:49:13;4.10;;;0.70;;
30934;SDS011;51033;42.648;23.292;2023-04-25T12:51:38;0.88;;;0.50;;
30934;SDS011;51033;42.648;23.292;2023-04-25T12:54:05;1.38;;;0.70;;
30934;SDS011;51033;42.648;23.292;2023-04-25T12:56:32;3.05;;;0.65;;
30934;SDS011;51033;42.648;23.292;2023-04-25T12:58:57;1.05;;;0.68;;
30934;SDS011;51033;42.648;23.292;2023-04-25T13:01:23;1.08;;;0.80;;
30934;SDS011;51033;42.648;23.292;2023-04-25T13:03:50;1.92;;;0.75;;
30934;SDS011;51033;42.648;23.292;2023-04-25T13:06:16;2.15;;;0.80;;
30934;SDS011;51033;42.648;23.292;2023-04-25T13:08:42;2.80;;;0.98;;
30934;SDS011;51033;42.648;23.292;2023-04-25T13:11:08;1.75;;;1.13;;
30934;SDS011;51033;42.648;23.292;2023-04-25T13:13:34;1.85;;;0.88;;
30934;SDS011;51033;42.648;23.292;2023-04-25T13:16:00;7.07;;;1.50;;
30934;SDS011;51033;42.648;23.292;2023-04-25T13:18:27;3.47;;;1.30;;
30934;SDS011;51033;42.648;23.292;2023-04-25T13:20:53;4.03;;;1.45;;
30934;SDS011;51033;42.648;23.292;2023-04-25T13:23:18;6.07;;;1.30;;
30934;SDS011;51033;42.648;23.292;2023-04-25T13:25:45;2.28;;;1.30;;
30934;SDS011;51033;42.648;23.292;2023-04-25T13:28:10;4.30;;;1.45;;
30934;SDS011;51033;42.648;23.292;2023-04-25T13:30:36;2.15;;;1.38;;
30934;SDS011;51033;42.648;23.292;2023-04-25T13:33:02;3.28;;;1.95;;
30934;SDS011;51033;42.648;23.292;2023-04-25T13:35:31;3.28;;;1.48;;
30934;SDS011;51033;42.648;23.292;2023-04-25T13:37:57;2.30;;;1.50;;
30934;SDS011;51033;42.648;23.292;2023-04-25T13:40:23;1.80;;;1.20;;
30934;SDS011;51033;42.648;23.292;2023-04-25T13:42:48;1.10;;;1.00;;
30934;SDS011;51033;42.648;23.292;2023-04-25T13:45:14;1.20;;;0.88;;
30934;SDS011;51033;42.648;23.292;2023-04-25T13:47:39;2.25;;;1.02;;
30934;SDS011;51033;42.648;23.292;2023-04-25T13:50:05;1.63;;;1.30;;
30934;SDS011;51033;42.648;23.292;2023-04-25T13:52:32;1.65;;;1.02;;
30934;SDS011;51033;42.648;23.292;2023-04-25T13:55:00;1.20;;;0.90;;
30934;SDS011;51033;42.648;23.292;2023-04-25T13:57:28;1.80;;;1.20;;
30934;SDS011;51033;42.648;23.292;2023-04-25T13:59:55;5.32;;;1.75;;
30934;SDS011;51033;42.648;23.292;2023-04-25T14:02:20;2.28;;;1.35;;
30934;SDS011;51033;42.648;23.292;2023-04-25T14:04:46;2.30;;;1.23;;
30934;SDS011;51033;42.648;23.292;2023-04-25T14:07:12;2.97;;;1.25;;
30934;SDS011;51033;42.648;23.292;2023-04-25T14:09:37;1.10;;;0.90;;
30934;SDS011;51033;42.648;23.292;2023-04-25T14:12:03;1.50;;;0.75;;
30934;SDS011;51033;42.648;23.292;2023-04-25T14:14:28;0.93;;;0.90;;
30934;SDS011;51033;42.648;23.292;2023-04-25T14:16:54;0.80;;;0.80;;
30934;SDS011;51033;42.648;23.292;2023-04-25T14:19:20;5.68;;;2.22;;
30934;SDS011;51033;42.648;23.292;2023-04-25T14:21:46;2.38;;;0.90;;
30934;SDS011;51033;42.648;23.292;2023-04-25T14:24:11;2.08;;;1.00;;
30934;SDS011;51033;42.648;23.292;2023-04-25T14:26:38;0.85;;;0.70;;
30934;SDS011;51033;42.648;23.292;2023-04-25T14:29:04;2.00;;;0.93;;
30934;SDS011;51033;42.648;23.292;2023-04-25T14:31:32;1.00;;;0.80;;
30934;SDS011;51033;42.648;23.292;2023-04-25T14:33:58;2.28;;;0.98;;
30934;SDS011;51033;42.648;23.292;2023-04-25T14:36:23;1.58;;;1.15;;